Time;durP1;ratioP1;P1;durP2;ratioP2;P2;SDS_P1;SDS_P2;PMS_P1;PMS_P2;Temp;Humidity;BMP_temperature;BMP_pressure;BME280_temperature;BME280_humidity;BME280_pressure;Samples;Min_cycle;Max_cycle;Signal;HPM_P1;HPM_P2
2022/01/29 00:01:02;;;;;;;;;;;;;;;22.38;17.63;97976.00;5066624;28;894;-76
2022/01/29 00:03:30;;;;;;;;;;;;;;;22.45;17.70;97970.13;5063137;28;987;-76
2022/01/29 00:05:57;;;;;;;;;;;;;;;22.55;17.81;97983.97;5043821;28;1707;-75
2022/01/29 00:08:23;;;;;;;;;;;;;;;22.54;17.65;97988.06;5040332;28;954;-77
2022/01/29 00:10:53;;;;;;;;;;;;;;;22.52;17.53;97992.56;5042670;28;1026;-76
2022/01/29 00:13:19;;;;;;;;;;;;;;;22.56;17.61;98013.91;5040289;28;1902;-77
2022/01/29 00:15:44;;;;;;;;;;;;;;;22.61;17.31;98009.72;5022002;28;1140;-76
2022/01/29 00:18:09;;;;;;;;;;;;;;;22.64;17.56;98017.34;5020553;28;999;-76
2022/01/29 00:20:35;;;;;;;;;;;;;;;22.24;17.94;98017.69;5022712;28;981;-77
2022/01/29 00:23:00;;;;;;;;;;;;;;;22.18;18.08;98019.50;5020884;28;924;-76
2022/01/29 00:25:26;;;;;;;;;;;;;;;22.17;18.08;98017.88;5021235;28;938;-76
2022/01/29 00:27:53;;;;;;;;;;;;;;;22.45;17.62;98024.00;5021121;28;977;-76
2022/01/29 00:30:19;;;;;;;;;;;;;;;22.49;17.76;98021.84;5020593;28;938;-74
2022/01/29 00:32:44;;;;;;;;;;;;;;;22.43;17.60;98018.75;5020721;28;1906;-76
2022/01/29 00:35:09;;;;;;;;;;;;;;;22.51;17.65;98025.81;5020359;28;1022;-76
2022/01/29 00:37:35;;;;;;;;;;;;;;;22.49;17.45;98024.69;5037075;28;875;-76
2022/01/29 00:40:01;;;;;;;;;;;;;;;22.36;17.82;98025.44;5019378;28;972;-76
2022/01/29 00:42:26;;;;;;;;;;;;;;;22.28;17.89;98024.06;5003268;28;959;-76
2022/01/29 00:44:51;;;;;;;;;;;;;;;22.46;17.56;98019.91;5000222;28;952;-76
2022/01/29 00:47:17;;;;;;;;;;;;;;;22.19;17.69;98026.75;5002421;28;950;-76
2022/01/29 00:49:43;;;;;;;;;;;;;;;22.31;17.93;98023.16;4999992;28;1043;-76
2022/01/29 00:52:08;;;;;;;;;;;;;;;22.36;17.65;98019.75;5000160;28;1906;-76
2022/01/29 00:54:34;;;;;;;;;;;;;;;22.15;18.15;98030.94;4996083;28;940;-75
2022/01/29 00:56:59;;;;;;;;;;;;;;;22.59;17.64;98021.53;4982957;28;961;-76
2022/01/29 00:59:24;;;;;;;;;;;;;;;22.18;17.89;98030.84;4964941;28;963;-76
2022/01/29 01:01:50;;;;;;;;;;;;;;;22.51;17.40;98019.34;5002615;28;986;-77
2022/01/29 01:04:15;;;;;;;;;;;;;;;22.58;17.51;98019.13;4967837;28;941;-76
2022/01/29 01:06:41;;;;;;;;;;;;;;;22.80;17.35;98008.72;5002491;28;1042;-76
2022/01/29 01:09:06;;;;;;;;;;;;;;;22.67;17.57;98013.59;5000571;28;975;-77
2022/01/29 01:11:31;;;;;;;;;;;;;;;22.67;17.56;98010.75;5017490;28;1044;-76
2022/01/29 01:13:57;;;;;;;;;;;;;;;22.74;17.44;98010.53;5058943;28;1906;-76
2022/01/29 01:16:22;;;;;;;;;;;;;;;22.65;17.49;98001.91;5061742;28;1060;-76
2022/01/29 01:18:48;;;;;;;;;;;;;;;22.64;17.55;98000.31;5018331;28;969;-76
2022/01/29 01:21:14;;;;;;;;;;;;;;;22.54;17.73;98001.44;5003739;28;970;-76
2022/01/29 01:23:39;;;;;;;;;;;;;;;22.60;17.44;98002.47;4998632;28;1090;-77
2022/01/29 01:26:06;;;;;;;;;;;;;;;22.75;17.08;98000.78;5003660;28;945;-77
2022/01/29 01:28:32;;;;;;;;;;;;;;;22.54;17.34;98001.44;4998436;28;981;-76
2022/01/29 01:30:57;;;;;;;;;;;;;;;22.54;17.38;98012.78;5003743;28;986;-76
2022/01/29 01:33:23;;;;;;;;;;;;;;;22.59;17.43;98006.56;4980341;28;1958;-75
2022/01/29 01:35:55;;;;;;;;;;;;;;;22.56;17.41;98010.28;4983497;28;957;-76
2022/01/29 01:38:25;;;;;;;;;;;;;;;22.42;17.63;98019.22;4924827;29;1051;-76
2022/01/29 01:40:55;;;;;;;;;;;;;;;22.70;17.47;98012.69;4930374;29;1049;-76
2022/01/29 01:43:21;;;;;;;;;;;;;;;22.69;17.41;98010.28;4907049;29;944;-76
2022/01/29 01:45:46;;;;;;;;;;;;;;;22.52;17.65;98015.25;4910413;29;1005;-76
2022/01/29 01:48:12;;;;;;;;;;;;;;;22.48;17.53;98020.25;4907494;29;1055;-77
2022/01/29 01:50:37;;;;;;;;;;;;;;;22.60;17.57;98010.97;4909282;29;892;-76
2022/01/29 01:53:03;;;;;;;;;;;;;;;22.54;17.60;98024.13;4923763;29;1876;-76
2022/01/29 01:55:28;;;;;;;;;;;;;;;22.54;17.29;98021.28;4931276;29;1208;-76
2022/01/29 01:57:54;;;;;;;;;;;;;;;22.56;17.63;98028.09;4945868;29;1027;-76
2022/01/29 02:00:19;;;;;;;;;;;;;;;22.28;17.78;98012.72;4946464;29;1097;-76
2022/01/29 02:02:47;;;;;;;;;;;;;;;22.58;17.69;98019.13;4946922;29;1028;-77
2022/01/29 02:05:12;;;;;;;;;;;;;;;22.42;17.63;98010.69;4978539;28;983;-76
2022/01/29 02:07:37;;;;;;;;;;;;;;;22.28;17.76;97973.03;4985598;28;992;-75
2022/01/29 02:10:03;;;;;;;;;;;;;;;22.53;17.39;98014.00;5031632;28;1082;-76
2022/01/29 02:12:32;;;;;;;;;;;;;;;22.56;17.61;98015.97;5028034;28;1949;-76
2022/01/29 02:15:02;;;;;;;;;;;;;;;22.55;17.32;98020.03;4982962;28;1272;-75
2022/01/29 02:17:28;;;;;;;;;;;;;;;22.60;17.34;98028.00;4985592;28;994;-76
2022/01/29 02:19:53;;;;;;;;;;;;;;;22.52;17.68;98020.94;4970712;28;1085;-76
2022/01/29 02:22:19;;;;;;;;;;;;;;;22.63;17.32;98027.06;5005716;28;988;-76
2022/01/29 02:24:44;;;;;;;;;;;;;;;22.59;17.34;98029.25;5002779;28;1009;-76
2022/01/29 02:27:09;;;;;;;;;;;;;;;22.56;17.53;98033.75;5005374;28;971;-76
2022/01/29 02:29:35;;;;;;;;;;;;;;;22.44;17.44;98022.41;5003700;28;975;-76
2022/01/29 02:32:01;;;;;;;;;;;;;;;22.52;17.62;98026.59;5004983;28;1027;-76
2022/01/29 02:34:27;;;;;;;;;;;;;;;22.57;17.58;98023.22;5002615;28;1097;-76
2022/01/29 02:36:52;;;;;;;;;;;;;;;22.74;17.44;98024.72;5001972;28;1052;-76
2022/01/29 02:39:19;;;;;;;;;;;;;;;22.67;17.42;98026.97;5002812;28;951;-76
2022/01/29 02:41:45;;;;;;;;;;;;;;;22.09;18.05;98033.50;5005104;28;974;-76
2022/01/29 02:44:14;;;;;;;;;;;;;;;22.05;18.24;98027.91;5003723;28;1006;-76
2022/01/29 02:46:49;;;;;;;;;;;;;;;22.17;17.95;98029.22;5052737;28;917;-77
2022/01/29 02:49:15;;;;;;;;;;;;;;;22.44;17.62;98033.75;5060612;28;955;-76
2022/01/29 02:51:56;;;;;;;;;;;;;;;22.32;17.79;98035.28;5065559;28;1166;-76
2022/01/29 02:54:23;;;;;;;;;;;;;;;22.49;17.40;98039.66;5064188;28;1944;-76
2022/01/29 02:56:48;;;;;;;;;;;;;;;22.58;17.59;98034.09;5065824;28;914;-76
2022/01/29 02:59:14;;;;;;;;;;;;;;;22.52;17.46;98033.06;5063628;28;934;-76
2022/01/29 03:01:39;;;;;;;;;;;;;;;22.13;18.00;98045.56;5066235;28;979;-76
2022/01/29 03:04:05;;;;;;;;;;;;;;;22.41;17.77;98031.81;5063876;28;1157;-76
2022/01/29 03:06:30;;;;;;;;;;;;;;;22.31;17.90;98031.66;5066523;28;924;-76
2022/01/29 03:08:56;;;;;;;;;;;;;;;22.50;17.55;98029.09;5063168;28;944;-77
2022/01/29 03:11:22;;;;;;;;;;;;;;;22.43;17.60;98030.09;5066178;28;962;-76
2022/01/29 03:13:48;;;;;;;;;;;;;;;22.52;17.31;98038.75;5062975;28;1983;-76
2022/01/29 03:16:13;;;;;;;;;;;;;;;22.53;17.40;98036.69;5025089;28;1453;-76
2022/01/29 03:18:39;;;;;;;;;;;;;;;22.56;17.38;98044.31;5020480;28;977;-76
2022/01/29 03:21:04;;;;;;;;;;;;;;;22.51;17.45;98047.69;5025577;28;1055;-76
2022/01/29 03:23:29;;;;;;;;;;;;;;;22.56;17.63;98047.16;4987674;28;1083;-76
2022/01/29 03:25:55;;;;;;;;;;;;;;;22.41;17.71;98040.31;5024565;28;1014;-76
2022/01/29 03:28:20;;;;;;;;;;;;;;;22.61;17.27;98049.44;5021000;28;993;-76
2022/01/29 03:30:46;;;;;;;;;;;;;;;22.51;17.39;98048.50;5024140;28;996;-75
2022/01/29 03:33:11;;;;;;;;;;;;;;;23.01;17.10;98047.00;5021237;28;1898;-76
2022/01/29 03:35:37;;;;;;;;;;;;;;;22.71;17.39;98051.16;5023549;28;934;-75
2022/01/29 03:38:03;;;;;;;;;;;;;;;22.25;17.77;98064.63;5021678;28;860;-76
2022/01/29 03:40:29;;;;;;;;;;;;;;;22.07;17.85;98064.28;5023131;28;1070;-76
2022/01/29 03:43:04;;;;;;;;;;;;;;;22.40;17.67;98081.25;4989388;28;1042;-76
2022/01/29 03:45:30;;;;;;;;;;;;;;;22.08;18.04;98080.88;5022222;28;957;-76
2022/01/29 03:47:55;;;;;;;;;;;;;;;22.18;18.02;98098.84;5020947;28;1034;-77
2022/01/29 03:50:21;;;;;;;;;;;;;;;22.62;17.24;98105.69;5022006;28;1170;-76
2022/01/29 03:52:46;;;;;;;;;;;;;;;21.91;18.19;98101.16;5027897;28;1979;-76
2022/01/29 03:55:12;;;;;;;;;;;;;;;22.55;17.25;98110.78;5062975;28;903;-75
2022/01/29 03:57:37;;;;;;;;;;;;;;;22.61;17.45;98114.66;5064719;28;981;-76
2022/01/29 04:00:04;;;;;;;;;;;;;;;22.44;17.62;98115.97;5062772;28;965;-76
2022/01/29 04:02:31;;;;;;;;;;;;;;;22.13;17.70;98104.28;5065038;28;897;-76
2022/01/29 04:04:56;;;;;;;;;;;;;;;21.66;18.51;98113.94;5059663;28;985;-76
2022/01/29 04:07:22;;;;;;;;;;;;;;;21.90;18.00;98119.41;5045580;28;995;-76
2022/01/29 04:09:50;;;;;;;;;;;;;;;22.21;17.91;98126.28;5019541;28;983;-76
2022/01/29 04:12:15;;;;;;;;;;;;;;;22.40;17.74;98123.78;5021840;28;1902;-76
2022/01/29 04:14:41;;;;;;;;;;;;;;;22.04;18.22;98116.22;5019568;28;1219;-76
2022/01/29 04:17:07;;;;;;;;;;;;;;;22.02;18.21;98121.50;5021929;28;966;-76
2022/01/29 04:19:33;;;;;;;;;;;;;;;22.24;17.71;98125.41;5002970;28;1036;-77
2022/01/29 04:21:58;;;;;;;;;;;;;;;21.97;18.03;98119.25;5001747;28;1228;-76
2022/01/29 04:24:24;;;;;;;;;;;;;;;22.31;17.76;98141.41;4998980;28;923;-76
2022/01/29 04:26:49;;;;;;;;;;;;;;;22.23;17.75;98135.16;5002114;28;917;-76
2022/01/29 04:29:15;;;;;;;;;;;;;;;22.03;18.17;98138.09;5000058;28;1002;-76
2022/01/29 04:31:57;;;;;;;;;;;;;;;22.34;17.64;98140.53;5001280;28;1005;-76
2022/01/29 04:34:22;;;;;;;;;;;;;;;21.92;18.09;98148.91;4980086;28;1964;-76
2022/01/29 04:36:48;;;;;;;;;;;;;;;22.01;18.19;98156.75;4982386;28;981;-76
2022/01/29 04:39:13;;;;;;;;;;;;;;;21.81;18.22;98166.16;4980611;28;1008;-76
2022/01/29 04:41:39;;;;;;;;;;;;;;;22.49;17.86;98169.28;4999165;28;930;-76
2022/01/29 04:44:04;;;;;;;;;;;;;;;22.37;17.82;98176.47;5000153;28;948;-76
2022/01/29 04:46:30;;;;;;;;;;;;;;;22.45;17.48;98174.25;5002223;28;990;-76
2022/01/29 04:48:55;;;;;;;;;;;;;;;22.52;17.51;98171.22;4999939;28;1086;-76
2022/01/29 04:51:21;;;;;;;;;;;;;;;21.89;18.32;98177.31;4947752;29;1275;-76
2022/01/29 04:53:46;;;;;;;;;;;;;;;21.83;18.50;98180.66;4983094;28;1891;-76
2022/01/29 04:56:12;;;;;;;;;;;;;;;21.94;18.18;98180.41;5023536;28;972;-76
2022/01/29 04:58:37;;;;;;;;;;;;;;;22.03;18.22;98182.63;5017832;28;1037;-77
2022/01/29 05:01:03;;;;;;;;;;;;;;;22.35;17.58;98174.09;5022311;28;956;-76
2022/01/29 05:03:29;;;;;;;;;;;;;;;21.94;18.13;98180.41;5018118;28;1080;-75
2022/01/29 05:05:55;;;;;;;;;;;;;;;22.02;17.98;98186.66;5037144;28;1099;-75
2022/01/29 05:08:20;;;;;;;;;;;;;;;22.33;17.70;98184.31;5038155;28;927;-76
2022/01/29 05:10:46;;;;;;;;;;;;;;;21.93;18.40;98183.69;5025021;28;912;-76
2022/01/29 05:13:15;;;;;;;;;;;;;;;21.94;18.32;98179.59;5005015;28;1958;-76
2022/01/29 05:29:02;;;;;;;;;;;;;;;21.85;18.29;98206.50;4997941;28;929;-76
2022/01/29 05:31:27;;;;;;;;;;;;;;;22.31;17.65;98224.41;5008733;28;995;-76
2022/01/29 05:33:53;;;;;;;;;;;;;;;21.50;18.91;98224.34;5005409;28;1906;-76
2022/01/29 05:36:18;;;;;;;;;;;;;;;22.96;17.27;98225.56;5008171;28;948;-76
2022/01/29 05:38:44;;;;;;;;;;;;;;;22.87;17.42;98224.13;5004443;28;989;-76
2022/01/29 05:41:09;;;;;;;;;;;;;;;22.64;17.43;98232.88;5009949;28;958;-77
2022/01/29 05:43:35;;;;;;;;;;;;;;;22.38;17.56;98231.13;5010262;28;1041;-77
2022/01/29 05:46:00;;;;;;;;;;;;;;;22.44;17.75;98223.72;5028891;28;906;-76
2022/01/29 05:48:26;;;;;;;;;;;;;;;22.27;17.67;98220.06;4991397;28;1052;-76
2022/01/29 05:50:51;;;;;;;;;;;;;;;22.23;17.82;98220.19;5028429;28;975;-76
2022/01/29 05:53:16;;;;;;;;;;;;;;;22.26;17.94;98213.63;5029483;28;1967;-76
2022/01/29 05:55:42;;;;;;;;;;;;;;;22.50;17.72;98221.91;5070497;28;934;-76
2022/01/29 05:58:08;;;;;;;;;;;;;;;22.44;17.61;98223.72;5068534;28;952;-76
2022/01/29 06:00:33;;;;;;;;;;;;;;;22.35;17.83;98225.13;5070075;28;1050;-76
2022/01/29 06:02:59;;;;;;;;;;;;;;;22.33;17.60;98236.13;5068765;28;969;-76
2022/01/29 06:05:24;;;;;;;;;;;;;;;22.42;17.74;98243.19;5069296;28;950;-77
2022/01/29 06:07:50;;;;;;;;;;;;;;;22.56;17.70;98245.66;5068752;28;937;-76
2022/01/29 06:10:16;;;;;;;;;;;;;;;22.34;17.60;98248.25;5046221;28;1166;-76
2022/01/29 06:12:41;;;;;;;;;;;;;;;22.42;17.81;98265.88;5047364;28;2034;-76
2022/01/29 06:15:07;;;;;;;;;;;;;;;22.29;17.90;98275.09;4995618;28;1050;-76
2022/01/29 06:17:32;;;;;;;;;;;;;;;22.42;17.74;98274.38;4988674;28;964;-76
2022/01/29 06:19:58;;;;;;;;;;;;;;;22.27;17.97;98282.44;4986342;28;966;-76
2022/01/29 06:22:24;;;;;;;;;;;;;;;22.19;18.04;98287.50;4988682;28;989;-76
2022/01/29 06:24:49;;;;;;;;;;;;;;;22.25;17.90;98285.72;4967206;28;955;-76
2022/01/29 06:27:15;;;;;;;;;;;;;;;22.40;17.69;98283.34;4985780;28;1023;-76
2022/01/29 06:29:40;;;;;;;;;;;;;;;22.28;17.92;98286.88;4983073;28;1241;-76
2022/01/29 06:32:06;;;;;;;;;;;;;;;22.42;17.80;98285.72;4984641;28;935;-77
2022/01/29 06:34:31;;;;;;;;;;;;;;;22.81;17.09;98294.00;4983436;28;1879;-76
2022/01/29 06:36:57;;;;;;;;;;;;;;;22.60;17.56;98297.41;4985778;28;970;-76
2022/01/29 06:39:22;;;;;;;;;;;;;;;22.09;17.96;98294.19;4982863;28;869;-77
2022/01/29 06:41:48;;;;;;;;;;;;;;;22.21;18.00;98298.38;4997879;28;985;-77
2022/01/29 06:44:13;;;;;;;;;;;;;;;22.63;17.69;98293.66;5022266;28;1024;-76
2022/01/29 06:46:39;;;;;;;;;;;;;;;22.80;17.25;98300.94;5023600;28;1049;-76
2022/01/29 06:49:04;;;;;;;;;;;;;;;22.44;17.70;98303.91;5021921;28;995;-76
2022/01/29 06:51:30;;;;;;;;;;;;;;;21.75;18.67;98300.22;4991992;28;960;-76
2022/01/29 06:53:55;;;;;;;;;;;;;;;21.67;18.58;98310.94;5024030;28;1973;-75
2022/01/29 06:56:21;;;;;;;;;;;;;;;22.87;17.27;98314.91;5047307;28;1372;-76
2022/01/29 06:58:46;;;;;;;;;;;;;;;22.84;17.28;98312.97;5062499;28;881;-77
2022/01/29 07:01:12;;;;;;;;;;;;;;;22.09;17.96;98305.53;5066449;28;995;-76
2022/01/29 07:03:37;;;;;;;;;;;;;;;21.69;18.44;98299.97;5062017;28;895;-76
2022/01/29 07:06:04;;;;;;;;;;;;;;;22.60;17.76;98305.91;5063777;28;1131;-76
2022/01/29 07:08:29;;;;;;;;;;;;;;;22.54;17.40;98319.03;5062222;28;1285;-76
2022/01/29 07:10:55;;;;;;;;;;;;;;;22.38;17.98;98313.34;5065628;28;1236;-76
2022/01/29 07:13:21;;;;;;;;;;;;;;;21.86;18.36;98326.28;5042931;28;1906;-75
2022/01/29 07:15:47;;;;;;;;;;;;;;;22.00;18.37;98330.84;5065429;28;1209;-76
2022/01/29 07:18:12;;;;;;;;;;;;;;;22.32;17.75;98328.06;5062317;28;1178;-76
2022/01/29 07:20:38;;;;;;;;;;;;;;;22.75;17.23;98334.72;5063571;28;1225;-76
2022/01/29 07:23:06;;;;;;;;;;;;;;;22.38;17.74;98344.53;5062912;28;1514;-76
2022/01/29 07:25:32;;;;;;;;;;;;;;;22.64;17.71;98335.00;5045569;28;1277;-76
2022/01/29 07:27:57;;;;;;;;;;;;;;;21.97;18.10;98328.91;5063115;28;1186;-76
2022/01/29 07:30:22;;;;;;;;;;;;;;;21.74;18.46;98333.44;5063637;28;1478;-76
2022/01/29 07:32:48;;;;;;;;;;;;;;;22.47;17.65;98341.88;5063724;28;1887;-77
2022/01/29 07:35:14;;;;;;;;;;;;;;;22.12;18.08;98347.16;5062552;28;897;-76
2022/01/29 07:37:39;;;;;;;;;;;;;;;21.88;18.22;98351.34;5064045;28;888;-77
2022/01/29 07:40:05;;;;;;;;;;;;;;;22.35;17.94;98364.03;5062368;28;1037;-74
2022/01/29 07:42:30;;;;;;;;;;;;;;;22.39;17.98;98363.16;5064752;28;869;-76
2022/01/29 07:44:56;;;;;;;;;;;;;;;22.32;17.96;98381.91;5062509;28;929;-76
2022/01/29 07:47:21;;;;;;;;;;;;;;;22.74;17.67;98384.97;5064627;28;893;-76
2022/01/29 07:49:47;;;;;;;;;;;;;;;22.74;17.70;98376.47;5062018;28;834;-76
2022/01/29 07:52:12;;;;;;;;;;;;;;;22.32;18.16;98379.09;5064273;28;925;-76
2022/01/29 07:54:38;;;;;;;;;;;;;;;22.46;17.57;98385.66;5062700;28;914;-77
2022/01/29 07:57:04;;;;;;;;;;;;;;;22.52;17.74;98383.91;5064795;28;902;-77
2022/01/29 07:59:29;;;;;;;;;;;;;;;22.47;17.73;98382.38;5060159;28;1613;-76
2022/01/29 08:01:55;;;;;;;;;;;;;;;22.47;17.91;98387.25;5029033;28;982;-76
2022/01/29 08:04:24;;;;;;;;;;;;;;;22.14;18.38;98380.75;5060753;28;940;-76
2022/01/29 08:06:52;;;;;;;;;;;;;;;21.96;18.60;98386.78;5062433;28;1087;-76
2022/01/29 08:09:18;;;;;;;;;;;;;;;21.37;18.87;98387.59;5060151;28;887;-76
2022/01/29 08:11:43;;;;;;;;;;;;;;;22.19;18.42;98389.53;5061468;28;1082;-77
2022/01/29 08:14:09;;;;;;;;;;;;;;;22.42;18.07;98399.13;5059658;28;1905;-76
2022/01/29 08:16:34;;;;;;;;;;;;;;;21.91;18.51;98396.59;5061772;28;1038;-77
2022/01/29 08:19:00;;;;;;;;;;;;;;;21.99;18.49;98397.25;5058931;28;1057;-76
2022/01/29 08:21:25;;;;;;;;;;;;;;;21.98;18.23;98392.81;5062296;28;1003;-77
2022/01/29 08:23:51;;;;;;;;;;;;;;;21.89;18.51;98392.59;5058796;28;983;-76
2022/01/29 08:26:16;;;;;;;;;;;;;;;21.87;18.42;98395.09;5022779;28;1023;-77
2022/01/29 08:28:42;;;;;;;;;;;;;;;22.48;17.87;98405.88;5001887;28;1115;-76
2022/01/29 08:31:07;;;;;;;;;;;;;;;22.25;17.96;98407.63;5026554;28;1546;-76
2022/01/29 08:33:33;;;;;;;;;;;;;;;22.29;17.99;98405.50;5017568;28;1981;-76
2022/01/29 08:35:59;;;;;;;;;;;;;;;22.25;18.03;98401.94;5013635;28;1340;-76
2022/01/29 08:38:25;;;;;;;;;;;;;;;22.25;18.19;98401.16;5008496;28;1363;-76
2022/01/29 08:40:50;;;;;;;;;;;;;;;21.75;18.56;98408.66;5012494;28;1207;-76
2022/01/29 08:43:16;;;;;;;;;;;;;;;21.98;18.49;98412.66;5008504;28;1282;-77
2022/01/29 08:45:41;;;;;;;;;;;;;;;22.32;18.18;98415.94;5020919;28;1005;-77
2022/01/29 08:48:07;;;;;;;;;;;;;;;21.88;18.61;98419.34;4979497;28;911;-77
2022/01/29 08:50:32;;;;;;;;;;;;;;;21.64;18.83;98416.59;4981944;28;1025;-77
2022/01/29 08:52:58;;;;;;;;;;;;;;;22.10;18.30;98420.47;4979966;28;1998;-77
2022/01/29 08:55:23;;;;;;;;;;;;;;;21.84;18.92;98420.22;4981817;28;1046;-77
2022/01/29 08:57:49;;;;;;;;;;;;;;;22.23;18.37;98424.28;4952844;28;1208;-77
2022/01/29 09:00:14;;;;;;;;;;;;;;;23.13;17.03;98428.59;4941604;28;959;-78
2022/01/29 09:02:40;;;;;;;;;;;;;;;22.42;18.02;98430.31;4942768;29;1077;-77
2022/01/29 09:05:06;;;;;;;;;;;;;;;21.61;18.47;98406.16;4941944;29;1194;-78
2022/01/29 09:07:31;;;;;;;;;;;;;;;22.22;18.46;98439.66;4986718;28;1278;-78
2022/01/29 09:09:56;;;;;;;;;;;;;;;22.99;17.55;98435.44;4999464;28;994;-77
2022/01/29 09:12:22;;;;;;;;;;;;;;;22.64;17.88;98434.28;5001625;28;1992;-77
2022/01/29 09:14:48;;;;;;;;;;;;;;;22.18;18.42;98441.00;4999262;28;1208;-78
2022/01/29 09:17:13;;;;;;;;;;;;;;;22.24;18.20;98447.75;5001812;28;1015;-77
2022/01/29 09:19:39;;;;;;;;;;;;;;;22.55;17.88;98445.41;5013208;28;1066;-77
2022/01/29 09:22:04;;;;;;;;;;;;;;;22.89;17.45;98447.84;5021472;28;1037;-77
2022/01/29 09:24:30;;;;;;;;;;;;;;;22.52;17.99;98440.63;5030671;28;903;-77
2022/01/29 09:26:55;;;;;;;;;;;;;;;22.26;18.34;98448.88;5061360;28;938;-77
2022/01/29 09:29:20;;;;;;;;;;;;;;;22.24;18.32;98453.41;5042164;28;1271;-77
2022/01/29 09:31:46;;;;;;;;;;;;;;;22.46;18.19;98453.72;5061498;28;867;-77
2022/01/29 09:34:11;;;;;;;;;;;;;;;22.75;17.88;98448.19;5058094;28;1973;-77
2022/01/29 09:36:37;;;;;;;;;;;;;;;22.33;18.21;98457.25;5060645;28;954;-77
2022/01/29 09:39:02;;;;;;;;;;;;;;;22.18;18.35;98461.63;5058258;28;1001;-76
2022/01/29 09:41:28;;;;;;;;;;;;;;;22.14;18.36;98455.25;5060892;28;1082;-77
2022/01/29 09:43:54;;;;;;;;;;;;;;;22.40;18.22;98455.50;5058269;28;1172;-77
2022/01/29 09:46:19;;;;;;;;;;;;;;;22.69;17.91;98453.59;5061303;28;975;-77
2022/01/29 09:48:45;;;;;;;;;;;;;;;22.49;17.89;98445.16;5057208;28;1150;-78
2022/01/29 09:51:13;;;;;;;;;;;;;;;22.29;18.38;98450.84;5063147;28;1042;-77
2022/01/29 09:53:44;;;;;;;;;;;;;;;22.16;18.43;98452.75;5059791;28;1976;-77
2022/01/29 09:56:10;;;;;;;;;;;;;;;22.46;18.01;98454.53;5064311;28;896;-77
2022/01/29 09:58:36;;;;;;;;;;;;;;;22.82;17.52;98459.34;5042183;28;962;-76
2022/01/29 10:01:01;;;;;;;;;;;;;;;22.63;18.03;98449.66;5067000;28;984;-77
2022/01/29 10:03:27;;;;;;;;;;;;;;;22.29;18.36;98453.69;5063563;28;914;-77
2022/01/29 10:05:53;;;;;;;;;;;;;;;22.01;18.58;98454.25;5047924;28;1131;-77
2022/01/29 10:08:19;;;;;;;;;;;;;;;22.17;18.36;98448.69;5041255;28;1535;-77
2022/01/29 10:10:45;;;;;;;;;;;;;;;23.07;17.35;98453.09;5043940;28;1324;-77
2022/01/29 10:13:22;;;;;;;;;;;;;;;22.64;17.70;98442.78;5040724;28;2014;-78
2022/01/29 10:15:48;;;;;;;;;;;;;;;22.30;18.04;98446.78;5043398;28;1119;-77
2022/01/29 10:18:22;;;;;;;;;;;;;;;22.12;18.28;98440.69;5041097;28;1526;-77
2022/01/29 10:20:48;;;;;;;;;;;;;;;22.84;17.86;98434.16;5021705;28;1283;-77
2022/01/29 10:23:13;;;;;;;;;;;;;;;22.98;17.43;98436.69;5020679;28;1254;-77
2022/01/29 10:25:43;;;;;;;;;;;;;;;22.42;18.02;98436.00;5023328;28;1242;-77
2022/01/29 10:28:15;;;;;;;;;;;;;;;22.29;18.19;98433.84;5021731;28;1234;-77
2022/01/29 10:30:50;;;;;;;;;;;;;;;22.18;18.19;98438.97;5023578;28;915;-77
2022/01/29 10:33:17;;;;;;;;;;;;;;;22.63;17.78;98424.13;5021240;28;1902;-77
2022/01/29 10:35:43;;;;;;;;;;;;;;;22.87;17.50;98438.97;5023900;28;990;-77
2022/01/29 10:38:09;;;;;;;;;;;;;;;23.05;17.53;98422.31;5021735;28;1066;-77
2022/01/29 10:40:34;;;;;;;;;;;;;;;22.57;17.91;98420.25;5043383;28;1003;-78
2022/01/29 10:43:03;;;;;;;;;;;;;;;22.21;18.47;98426.72;5041946;28;1009;-78
2022/01/29 10:45:33;;;;;;;;;;;;;;;22.25;18.31;98418.94;5042585;28;1011;-76
2022/01/29 10:47:58;;;;;;;;;;;;;;;22.05;18.36;98418.94;5042298;28;1105;-76
2022/01/29 10:50:24;;;;;;;;;;;;;;;23.10;17.39;98418.13;5042839;28;1076;-78
2022/01/29 10:52:49;;;;;;;;;;;;;;;22.69;17.90;98413.88;5062915;28;1957;-77
2022/01/29 10:55:15;;;;;;;;;;;;;;;22.42;18.04;98414.09;5062285;28;922;-77
2022/01/29 10:57:41;;;;;;;;;;;;;;;22.14;18.66;98421.22;5065409;28;909;-77
2022/01/29 11:00:08;;;;;;;;;;;;;;;22.71;18.02;98407.75;5061407;28;1018;-77
2022/01/29 11:02:33;;;;;;;;;;;;;;;22.88;17.70;98404.50;5065458;28;879;-77
2022/01/29 11:05:04;;;;;;;;;;;;;;;22.40;18.27;98410.13;5063000;28;928;-77
2022/01/29 11:07:30;;;;;;;;;;;;;;;22.23;18.43;98418.59;5065808;28;864;-77
2022/01/29 11:09:56;;;;;;;;;;;;;;;22.24;18.51;98413.72;5062760;28;966;-77
2022/01/29 11:12:22;;;;;;;;;;;;;;;22.64;18.03;98408.75;5065732;28;1879;-77
2022/01/29 11:14:48;;;;;;;;;;;;;;;22.79;17.86;98404.28;5060449;28;1087;-78
2022/01/29 11:17:15;;;;;;;;;;;;;;;22.40;18.15;98405.25;5063568;28;926;-77
2022/01/29 11:19:40;;;;;;;;;;;;;;;22.18;18.34;98402.13;5061193;28;1363;-77
2022/01/29 11:22:06;;;;;;;;;;;;;;;22.23;18.12;98407.25;5063497;28;916;-77
2022/01/29 11:24:32;;;;;;;;;;;;;;;22.84;17.90;98414.31;5061121;28;922;-77
2022/01/29 11:26:57;;;;;;;;;;;;;;;22.94;17.68;98409.63;5046289;28;952;-77
2022/01/29 11:29:23;;;;;;;;;;;;;;;22.30;18.25;98404.25;5060997;28;969;-78
2022/01/29 11:31:48;;;;;;;;;;;;;;;22.21;18.41;98404.06;5029879;28;1090;-77
2022/01/29 11:34:14;;;;;;;;;;;;;;;21.96;18.60;98398.91;5061064;28;1987;-77
2022/01/29 11:36:48;;;;;;;;;;;;;;;22.60;18.06;98402.34;5063141;28;832;-77
2022/01/29 11:39:20;;;;;;;;;;;;;;;22.80;17.50;98388.09;5061085;28;1003;-77
2022/01/29 11:41:46;;;;;;;;;;;;;;;22.33;18.39;98394.09;5063247;28;986;-78
2022/01/29 11:44:26;;;;;;;;;;;;;;;22.23;18.46;98395.94;5060575;28;1119;-78
2022/01/29 11:46:52;;;;;;;;;;;;;;;22.17;18.43;98388.38;5064501;28;890;-78
2022/01/29 11:49:17;;;;;;;;;;;;;;;22.54;18.04;98387.09;5063299;28;858;-78
2022/01/29 11:51:43;;;;;;;;;;;;;;;22.85;17.54;98398.91;5061931;28;1368;-77
2022/01/29 11:54:09;;;;;;;;;;;;;;;22.61;18.06;98395.44;5060545;28;1987;-78
2022/01/29 11:56:38;;;;;;;;;;;;;;;22.22;18.53;98385.81;5063395;28;1046;-78
2022/01/29 11:59:26;;;;;;;;;;;;;;;22.06;18.78;98392.22;5001130;28;956;-77
2022/01/29 12:01:56;;;;;;;;;;;;;;;22.56;18.24;98395.97;5004084;28;954;-76
2022/01/29 12:04:22;;;;;;;;;;;;;;;22.98;17.38;98399.00;5000258;28;1248;-77
2022/01/29 12:07:03;;;;;;;;;;;;;;;22.51;18.12;98405.00;4987252;28;985;-78
2022/01/29 12:09:33;;;;;;;;;;;;;;;22.18;18.42;98402.13;5000581;28;982;-77
2022/01/29 12:12:17;;;;;;;;;;;;;;;22.24;18.40;98408.06;5003112;28;922;-77
2022/01/29 12:14:43;;;;;;;;;;;;;;;22.87;17.73;98402.88;5000013;28;1914;-78
2022/01/29 12:17:08;;;;;;;;;;;;;;;22.65;18.04;98398.97;5002337;28;984;-78
2022/01/29 12:19:40;;;;;;;;;;;;;;;22.23;18.28;98401.59;5000182;28;946;-77
2022/01/29 12:22:16;;;;;;;;;;;;;;;22.21;18.37;98415.38;4983099;28;982;-76
2022/01/29 12:24:42;;;;;;;;;;;;;;;22.51;18.31;98414.31;4964121;28;965;-77
2022/01/29 12:27:07;;;;;;;;;;;;;;;22.77;17.81;98406.78;4963759;29;906;-77
2022/01/29 12:29:33;;;;;;;;;;;;;;;22.45;18.28;98406.75;4967173;28;1054;-77
2022/01/29 12:31:59;;;;;;;;;;;;;;;22.33;18.22;98406.22;4983143;28;979;-78
2022/01/29 12:34:25;;;;;;;;;;;;;;;22.22;18.37;98414.16;4983038;28;1891;-78
2022/01/29 12:36:51;;;;;;;;;;;;;;;22.58;18.25;98419.00;5002699;28;904;-77
2022/01/29 12:39:23;;;;;;;;;;;;;;;22.82;17.92;98420.44;5000391;28;1061;-78
2022/01/29 12:44:56;;;;;;;;;;;;;;;22.09;18.58;98413.22;4980588;28;1043;-77
2022/01/29 12:47:25;;;;;;;;;;;;;;;22.32;18.19;98415.94;4966826;28;1642;-77
2022/01/29 12:49:51;;;;;;;;;;;;;;;22.80;17.65;98417.25;4960814;28;975;-78
2022/01/29 12:52:16;;;;;;;;;;;;;;;22.68;17.64;98419.97;4960566;29;1058;-78
2022/01/29 12:54:50;;;;;;;;;;;;;;;22.44;18.17;98410.84;4941741;29;1907;-77
2022/01/29 12:57:15;;;;;;;;;;;;;;;22.09;18.60;98416.06;4944420;29;929;-77
2022/01/29 12:59:40;;;;;;;;;;;;;;;22.21;18.71;98421.06;4942753;29;963;-77
2022/01/29 13:02:06;;;;;;;;;;;;;;;22.70;17.95;98418.31;4943540;29;1141;-77
2022/01/29 13:04:31;;;;;;;;;;;;;;;23.02;17.55;98413.91;4958939;28;1467;-77
2022/01/29 13:07:04;;;;;;;;;;;;;;;22.56;18.20;98401.63;4981378;28;1286;-77
2022/01/29 13:09:34;;;;;;;;;;;;;;;22.22;18.70;98410.50;4960868;28;1072;-76
2022/01/29 13:12:00;;;;;;;;;;;;;;;22.50;18.24;98414.75;4981547;28;1287;-77
2022/01/29 13:14:26;;;;;;;;;;;;;;;22.84;17.75;98406.59;4979285;28;1967;-77